sensor_id;sensor_type;location;lat;lon;timestamp;P1;durP1;ratioP1;P2;durP2;ratioP2
70467;SDS011;57934;51.532;7.684;2023-06-14T00:02:11;8.38;;;6.47;;
70467;SDS011;57934;51.532;7.684;2023-06-14T00:04:37;8.52;;;6.00;;
70467;SDS011;57934;51.532;7.684;2023-06-14T00:07:05;8.50;;;6.60;;
70467;SDS011;57934;51.532;7.684;2023-06-14T00:09:33;7.93;;;6.25;;
70467;SDS011;57934;51.532;7.684;2023-06-14T00:12:00;20.02;;;6.88;;
70467;SDS011;57934;51.532;7.684;2023-06-14T00:14:26;8.25;;;6.72;;
70467;SDS011;57934;51.532;7.684;2023-06-14T00:16:52;9.60;;;6.38;;
70467;SDS011;57934;51.532;7.684;2023-06-14T00:19:20;8.00;;;5.55;;
70467;SDS011;57934;51.532;7.684;2023-06-14T00:21:46;7.40;;;6.70;;
70467;SDS011;57934;51.532;7.684;2023-06-14T00:24:13;10.27;;;6.13;;
70467;SDS011;57934;51.532;7.684;2023-06-14T00:26:39;10.77;;;6.53;;
70467;SDS011;57934;51.532;7.684;2023-06-14T00:29:05;7.95;;;6.28;;
70467;SDS011;57934;51.532;7.684;2023-06-14T00:31:31;9.70;;;6.22;;
70467;SDS011;57934;51.532;7.684;2023-06-14T00:33:57;8.02;;;6.22;;
70467;SDS011;57934;51.532;7.684;2023-06-14T00:36:23;9.45;;;6.07;;
70467;SDS011;57934;51.532;7.684;2023-06-14T00:38:49;7.93;;;5.93;;
70467;SDS011;57934;51.532;7.684;2023-06-14T00:41:15;8.48;;;6.15;;
70467;SDS011;57934;51.532;7.684;2023-06-14T00:43:42;10.85;;;6.22;;
70467;SDS011;57934;51.532;7.684;2023-06-14T00:46:08;10.40;;;5.65;;
70467;SDS011;57934;51.532;7.684;2023-06-14T00:48:36;11.55;;;5.38;;
70467;SDS011;57934;51.532;7.684;2023-06-14T00:51:03;7.82;;;6.22;;
70467;SDS011;57934;51.532;7.684;2023-06-14T00:53:30;6.85;;;6.03;;
70467;SDS011;57934;51.532;7.684;2023-06-14T00:55:59;14.60;;;6.50;;
70467;SDS011;57934;51.532;7.684;2023-06-14T00:58:26;9.98;;;5.63;;
70467;SDS011;57934;51.532;7.684;2023-06-14T01:00:54;8.07;;;5.68;;
70467;SDS011;57934;51.532;7.684;2023-06-14T01:03:22;10.07;;;6.13;;
70467;SDS011;57934;51.532;7.684;2023-06-14T01:05:50;9.80;;;6.18;;
70467;SDS011;57934;51.532;7.684;2023-06-14T01:08:42;8.48;;;6.05;;
70467;SDS011;57934;51.532;7.684;2023-06-14T01:11:26;8.65;;;5.88;;
70467;SDS011;57934;51.532;7.684;2023-06-14T01:14:07;9.63;;;5.75;;
70467;SDS011;57934;51.532;7.684;2023-06-14T01:16:36;6.03;;;5.43;;
70467;SDS011;57934;51.532;7.684;2023-06-14T01:19:05;9.52;;;5.88;;
70467;SDS011;57934;51.532;7.684;2023-06-14T01:21:40;8.05;;;5.63;;
70467;SDS011;57934;51.532;7.684;2023-06-14T01:24:14;6.90;;;5.45;;
70467;SDS011;57934;51.532;7.684;2023-06-14T01:26:41;10.90;;;5.80;;
70467;SDS011;57934;51.532;7.684;2023-06-14T01:29:13;10.40;;;6.00;;
70467;SDS011;57934;51.532;7.684;2023-06-14T01:31:45;8.05;;;6.00;;
70467;SDS011;57934;51.532;7.684;2023-06-14T01:34:15;9.27;;;6.15;;
70467;SDS011;57934;51.532;7.684;2023-06-14T01:36:51;9.80;;;6.07;;
70467;SDS011;57934;51.532;7.684;2023-06-14T01:39:22;11.13;;;5.57;;
70467;SDS011;57934;51.532;7.684;2023-06-14T01:41:49;9.70;;;5.90;;
70467;SDS011;57934;51.532;7.684;2023-06-14T01:44:18;6.85;;;5.85;;
70467;SDS011;57934;51.532;7.684;2023-06-14T01:46:45;6.47;;;5.35;;
70467;SDS011;57934;51.532;7.684;2023-06-14T01:49:11;7.53;;;5.50;;
70467;SDS011;57934;51.532;7.684;2023-06-14T01:51:38;8.73;;;5.50;;
70467;SDS011;57934;51.532;7.684;2023-06-14T01:54:04;12.27;;;5.95;;
70467;SDS011;57934;51.532;7.684;2023-06-14T01:56:31;7.00;;;5.53;;
70467;SDS011;57934;51.532;7.684;2023-06-14T01:58:58;9.65;;;5.43;;
70467;SDS011;57934;51.532;7.684;2023-06-14T02:01:25;6.50;;;5.00;;
70467;SDS011;57934;51.532;7.684;2023-06-14T02:03:52;8.95;;;4.93;;
70467;SDS011;57934;51.532;7.684;2023-06-14T02:06:19;11.45;;;5.47;;
70467;SDS011;57934;51.532;7.684;2023-06-14T02:08:45;9.50;;;5.03;;
70467;SDS011;57934;51.532;7.684;2023-06-14T02:11:11;9.80;;;5.25;;
70467;SDS011;57934;51.532;7.684;2023-06-14T02:13:37;6.20;;;5.05;;
70467;SDS011;57934;51.532;7.684;2023-06-14T02:16:03;7.55;;;5.20;;
70467;SDS011;57934;51.532;7.684;2023-06-14T02:18:30;8.73;;;5.40;;
70467;SDS011;57934;51.532;7.684;2023-06-14T02:20:56;8.98;;;5.30;;
70467;SDS011;57934;51.532;7.684;2023-06-14T02:23:22;4.97;;;4.47;;
70467;SDS011;57934;51.532;7.684;2023-06-14T02:25:48;9.48;;;4.70;;
70467;SDS011;57934;51.532;7.684;2023-06-14T02:28:14;7.97;;;4.57;;
70467;SDS011;57934;51.532;7.684;2023-06-14T02:30:40;8.90;;;5.53;;
70467;SDS011;57934;51.532;7.684;2023-06-14T02:33:06;7.28;;;4.85;;
70467;SDS011;57934;51.532;7.684;2023-06-14T02:35:32;5.55;;;4.78;;
70467;SDS011;57934;51.532;7.684;2023-06-14T02:37:59;7.65;;;4.60;;
70467;SDS011;57934;51.532;7.684;2023-06-14T02:40:26;7.55;;;4.82;;
70467;SDS011;57934;51.532;7.684;2023-06-14T02:42:52;7.43;;;4.45;;
70467;SDS011;57934;51.532;7.684;2023-06-14T02:45:18;6.93;;;4.28;;
70467;SDS011;57934;51.532;7.684;2023-06-14T02:47:44;8.90;;;4.68;;
70467;SDS011;57934;51.532;7.684;2023-06-14T02:50:12;5.55;;;4.63;;
70467;SDS011;57934;51.532;7.684;2023-06-14T02:52:38;6.35;;;4.82;;
70467;SDS011;57934;51.532;7.684;2023-06-14T02:55:08;5.55;;;4.18;;
70467;SDS011;57934;51.532;7.684;2023-06-14T02:57:35;9.68;;;4.47;;
70467;SDS011;57934;51.532;7.684;2023-06-14T03:00:02;9.40;;;4.60;;
70467;SDS011;57934;51.532;7.684;2023-06-14T03:02:33;7.68;;;4.47;;
70467;SDS011;57934;51.532;7.684;2023-06-14T03:04:59;9.63;;;4.50;;
70467;SDS011;57934;51.532;7.684;2023-06-14T03:07:29;8.20;;;4.60;;
70467;SDS011;57934;51.532;7.684;2023-06-14T03:09:56;6.68;;;4.50;;
70467;SDS011;57934;51.532;7.684;2023-06-14T03:12:22;6.65;;;4.63;;
70467;SDS011;57934;51.532;7.684;2023-06-14T03:14:49;6.00;;;4.35;;
70467;SDS011;57934;51.532;7.684;2023-06-14T03:17:19;5.75;;;4.43;;
70467;SDS011;57934;51.532;7.684;2023-06-14T03:19:45;11.35;;;4.47;;
70467;SDS011;57934;51.532;7.684;2023-06-14T03:22:13;5.82;;;4.30;;
70467;SDS011;57934;51.532;7.684;2023-06-14T03:24:40;7.15;;;4.38;;
70467;SDS011;57934;51.532;7.684;2023-06-14T03:27:10;7.53;;;4.32;;
70467;SDS011;57934;51.532;7.684;2023-06-14T03:29:41;7.88;;;4.38;;
70467;SDS011;57934;51.532;7.684;2023-06-14T03:32:08;8.68;;;4.20;;
70467;SDS011;57934;51.532;7.684;2023-06-14T03:34:37;4.72;;;3.30;;
70467;SDS011;57934;51.532;7.684;2023-06-14T03:37:10;6.80;;;3.45;;
70467;SDS011;57934;51.532;7.684;2023-06-14T03:39:36;5.68;;;3.40;;
70467;SDS011;57934;51.532;7.684;2023-06-14T03:42:02;5.65;;;3.08;;
70467;SDS011;57934;51.532;7.684;2023-06-14T03:44:29;7.72;;;3.83;;
70467;SDS011;57934;51.532;7.684;2023-06-14T03:46:56;6.63;;;3.97;;
70467;SDS011;57934;51.532;7.684;2023-06-14T03:49:22;3.95;;;3.55;;
70467;SDS011;57934;51.532;7.684;2023-06-14T03:51:49;7.75;;;3.72;;
70467;SDS011;57934;51.532;7.684;2023-06-14T03:54:18;7.75;;;3.85;;
70467;SDS011;57934;51.532;7.684;2023-06-14T03:56:44;7.18;;;3.90;;
70467;SDS011;57934;51.532;7.684;2023-06-14T03:59:13;5.35;;;3.90;;
70467;SDS011;57934;51.532;7.684;2023-06-14T04:01:39;10.13;;;4.30;;
70467;SDS011;57934;51.532;7.684;2023-06-14T04:04:11;7.53;;;3.78;;
70467;SDS011;57934;51.532;7.684;2023-06-14T04:06:37;7.03;;;3.42;;
70467;SDS011;57934;51.532;7.684;2023-06-14T04:09:06;8.50;;;3.80;;
70467;SDS011;57934;51.532;7.684;2023-06-14T04:11:33;7.90;;;4.13;;
70467;SDS011;57934;51.532;7.684;2023-06-14T04:13:59;8.38;;;4.25;;
70467;SDS011;57934;51.532;7.684;2023-06-14T04:16:27;5.82;;;3.72;;
70467;SDS011;57934;51.532;7.684;2023-06-14T04:18:54;9.65;;;3.90;;
70467;SDS011;57934;51.532;7.684;2023-06-14T04:21:22;4.72;;;3.70;;
70467;SDS011;57934;51.532;7.684;2023-06-14T04:23:50;5.38;;;4.05;;
70467;SDS011;57934;51.532;7.684;2023-06-14T04:26:20;9.50;;;3.88;;
70467;SDS011;57934;51.532;7.684;2023-06-14T04:28:47;6.50;;;3.80;;
70467;SDS011;57934;51.532;7.684;2023-06-14T04:31:13;5.65;;;3.50;;
70467;SDS011;57934;51.532;7.684;2023-06-14T04:33:40;6.97;;;4.05;;
70467;SDS011;57934;51.532;7.684;2023-06-14T04:36:12;4.57;;;3.75;;
70467;SDS011;57934;51.532;7.684;2023-06-14T04:38:39;4.38;;;3.67;;
70467;SDS011;57934;51.532;7.684;2023-06-14T04:41:07;8.43;;;3.80;;
70467;SDS011;57934;51.532;7.684;2023-06-14T04:43:38;6.45;;;4.10;;
70467;SDS011;57934;51.532;7.684;2023-06-14T04:46:05;5.97;;;3.72;;
70467;SDS011;57934;51.532;7.684;2023-06-14T04:48:36;5.68;;;4.15;;
70467;SDS011;57934;51.532;7.684;2023-06-14T04:51:03;4.97;;;3.60;;
70467;SDS011;57934;51.532;7.684;2023-06-14T04:53:29;4.32;;;3.45;;
70467;SDS011;57934;51.532;7.684;2023-06-14T04:55:57;4.82;;;3.60;;
70467;SDS011;57934;51.532;7.684;2023-06-14T04:58:23;7.32;;;3.78;;
70467;SDS011;57934;51.532;7.684;2023-06-14T05:00:50;4.22;;;3.58;;
70467;SDS011;57934;51.532;7.684;2023-06-14T05:03:16;10.68;;;3.85;;
70467;SDS011;57934;51.532;7.684;2023-06-14T05:05:44;9.18;;;5.45;;
70467;SDS011;57934;51.532;7.684;2023-06-14T05:08:12;6.88;;;4.00;;
70467;SDS011;57934;51.532;7.684;2023-06-14T05:10:38;5.45;;;4.30;;
70467;SDS011;57934;51.532;7.684;2023-06-14T05:13:04;8.98;;;4.15;;
70467;SDS011;57934;51.532;7.684;2023-06-14T05:15:31;8.73;;;4.10;;
70467;SDS011;57934;51.532;7.684;2023-06-14T05:17:57;7.35;;;4.13;;
70467;SDS011;57934;51.532;7.684;2023-06-14T05:20:24;5.57;;;4.03;;
70467;SDS011;57934;51.532;7.684;2023-06-14T05:22:52;5.88;;;4.25;;
70467;SDS011;57934;51.532;7.684;2023-06-14T05:25:19;7.72;;;3.83;;
70467;SDS011;57934;51.532;7.684;2023-06-14T05:27:46;7.38;;;3.97;;
70467;SDS011;57934;51.532;7.684;2023-06-14T05:30:14;6.63;;;3.92;;
70467;SDS011;57934;51.532;7.684;2023-06-14T05:32:41;9.55;;;3.65;;
70467;SDS011;57934;51.532;7.684;2023-06-14T05:35:08;7.88;;;3.72;;
70467;SDS011;57934;51.532;7.684;2023-06-14T05:37:35;8.75;;;4.07;;
70467;SDS011;57934;51.532;7.684;2023-06-14T05:40:01;9.02;;;4.20;;
70467;SDS011;57934;51.532;7.684;2023-06-14T05:42:30;5.43;;;3.78;;
70467;SDS011;57934;51.532;7.684;2023-06-14T05:44:57;8.10;;;3.90;;
70467;SDS011;57934;51.532;7.684;2023-06-14T05:47:22;6.07;;;3.85;;
70467;SDS011;57934;51.532;7.684;2023-06-14T05:49:49;5.68;;;3.65;;
70467;SDS011;57934;51.532;7.684;2023-06-14T05:52:15;8.07;;;3.83;;
70467;SDS011;57934;51.532;7.684;2023-06-14T05:54:41;6.22;;;3.60;;
70467;SDS011;57934;51.532;7.684;2023-06-14T05:57:07;5.10;;;3.65;;
70467;SDS011;57934;51.532;7.684;2023-06-14T05:59:33;8.80;;;3.75;;
70467;SDS011;57934;51.532;7.684;2023-06-14T06:01:59;5.53;;;3.63;;
70467;SDS011;57934;51.532;7.684;2023-06-14T06:04:25;4.63;;;3.53;;
70467;SDS011;57934;51.532;7.684;2023-06-14T06:06:51;6.53;;;3.65;;
70467;SDS011;57934;51.532;7.684;2023-06-14T06:09:17;6.32;;;3.67;;
70467;SDS011;57934;51.532;7.684;2023-06-14T06:11:44;7.05;;;3.20;;
70467;SDS011;57934;51.532;7.684;2023-06-14T06:14:10;7.80;;;3.80;;
70467;SDS011;57934;51.532;7.684;2023-06-14T06:16:36;8.85;;;3.67;;
70467;SDS011;57934;51.532;7.684;2023-06-14T06:19:02;5.78;;;3.35;;
70467;SDS011;57934;51.532;7.684;2023-06-14T06:21:28;11.65;;;4.28;;
70467;SDS011;57934;51.532;7.684;2023-06-14T06:23:54;10.77;;;3.55;;
70467;SDS011;57934;51.532;7.684;2023-06-14T06:26:21;7.57;;;3.47;;
70467;SDS011;57934;51.532;7.684;2023-06-14T06:28:48;5.63;;;2.97;;
70467;SDS011;57934;51.532;7.684;2023-06-14T06:31:14;5.10;;;3.15;;
70467;SDS011;57934;51.532;7.684;2023-06-14T06:33:40;8.10;;;3.47;;
70467;SDS011;57934;51.532;7.684;2023-06-14T06:36:07;3.70;;;2.97;;
70467;SDS011;57934;51.532;7.684;2023-06-14T06:38:33;6.05;;;3.60;;
70467;SDS011;57934;51.532;7.684;2023-06-14T06:40:59;6.35;;;3.00;;
70467;SDS011;57934;51.532;7.684;2023-06-14T06:43:25;6.20;;;3.65;;
70467;SDS011;57934;51.532;7.684;2023-06-14T06:45:51;5.05;;;3.00;;
70467;SDS011;57934;51.532;7.684;2023-06-14T06:48:17;4.38;;;3.10;;
70467;SDS011;57934;51.532;7.684;2023-06-14T06:50:43;6.68;;;2.85;;
70467;SDS011;57934;51.532;7.684;2023-06-14T06:53:09;9.30;;;3.25;;
70467;SDS011;57934;51.532;7.684;2023-06-14T06:55:35;8.15;;;3.40;;
70467;SDS011;57934;51.532;7.684;2023-06-14T06:58:01;4.30;;;3.25;;
70467;SDS011;57934;51.532;7.684;2023-06-14T07:00:27;4.82;;;3.08;;
70467;SDS011;57934;51.532;7.684;2023-06-14T07:02:53;5.97;;;3.17;;
70467;SDS011;57934;51.532;7.684;2023-06-14T07:05:20;4.50;;;3.05;;
70467;SDS011;57934;51.532;7.684;2023-06-14T07:07:46;3.83;;;2.90;;
70467;SDS011;57934;51.532;7.684;2023-06-14T07:10:12;5.15;;;3.05;;
70467;SDS011;57934;51.532;7.684;2023-06-14T07:12:38;4.97;;;2.80;;
70467;SDS011;57934;51.532;7.684;2023-06-14T07:15:08;5.00;;;2.70;;
70467;SDS011;57934;51.532;7.684;2023-06-14T07:17:34;5.03;;;2.30;;
70467;SDS011;57934;51.532;7.684;2023-06-14T07:20:01;6.50;;;3.00;;
70467;SDS011;57934;51.532;7.684;2023-06-14T07:22:33;5.70;;;3.00;;
70467;SDS011;57934;51.532;7.684;2023-06-14T07:24:59;5.72;;;2.75;;
70467;SDS011;57934;51.532;7.684;2023-06-14T07:27:25;6.10;;;2.85;;
70467;SDS011;57934;51.532;7.684;2023-06-14T07:29:51;4.18;;;2.53;;
70467;SDS011;57934;51.532;7.684;2023-06-14T07:32:17;5.30;;;2.53;;
70467;SDS011;57934;51.532;7.684;2023-06-14T07:34:43;4.32;;;2.78;;
70467;SDS011;57934;51.532;7.684;2023-06-14T07:37:08;3.22;;;2.35;;
70467;SDS011;57934;51.532;7.684;2023-06-14T07:39:35;2.67;;;2.28;;
70467;SDS011;57934;51.532;7.684;2023-06-14T07:42:01;8.35;;;2.47;;
70467;SDS011;57934;51.532;7.684;2023-06-14T07:44:29;2.88;;;2.10;;
70467;SDS011;57934;51.532;7.684;2023-06-14T07:46:56;2.33;;;1.77;;
70467;SDS011;57934;51.532;7.684;2023-06-14T07:49:24;3.88;;;2.05;;
70467;SDS011;57934;51.532;7.684;2023-06-14T07:51:51;2.63;;;2.20;;
70467;SDS011;57934;51.532;7.684;2023-06-14T07:54:17;3.83;;;1.55;;
70467;SDS011;57934;51.532;7.684;2023-06-14T07:56:43;5.43;;;1.55;;
70467;SDS011;57934;51.532;7.684;2023-06-14T07:59:09;6.20;;;1.63;;
70467;SDS011;57934;51.532;7.684;2023-06-14T08:01:34;1.63;;;1.33;;
70467;SDS011;57934;51.532;7.684;2023-06-14T08:04:01;1.52;;;1.42;;
70467;SDS011;57934;51.532;7.684;2023-06-14T08:06:27;2.88;;;1.35;;
70467;SDS011;57934;51.532;7.684;2023-06-14T08:08:53;3.88;;;1.45;;
70467;SDS011;57934;51.532;7.684;2023-06-14T08:11:19;3.00;;;1.52;;
70467;SDS011;57934;51.532;7.684;2023-06-14T08:13:45;1.52;;;1.42;;
70467;SDS011;57934;51.532;7.684;2023-06-14T08:16:11;3.38;;;1.45;;
70467;SDS011;57934;51.532;7.684;2023-06-14T08:18:37;4.78;;;1.60;;
70467;SDS011;57934;51.532;7.684;2023-06-14T08:21:03;1.98;;;1.45;;
70467;SDS011;57934;51.532;7.684;2023-06-14T08:23:29;1.02;;;1.00;;
70467;SDS011;57934;51.532;7.684;2023-06-14T08:25:56;2.85;;;1.15;;
70467;SDS011;57934;51.532;7.684;2023-06-14T08:28:23;1.27;;;1.17;;
70467;SDS011;57934;51.532;7.684;2023-06-14T08:30:50;2.28;;;1.30;;
70467;SDS011;57934;51.532;7.684;2023-06-14T08:33:16;1.88;;;1.50;;
70467;SDS011;57934;51.532;7.684;2023-06-14T08:35:42;2.10;;;1.10;;
70467;SDS011;57934;51.532;7.684;2023-06-14T08:38:09;2.25;;;1.30;;
70467;SDS011;57934;51.532;7.684;2023-06-14T08:40:36;2.45;;;1.30;;
70467;SDS011;57934;51.532;7.684;2023-06-14T08:43:03;1.92;;;1.50;;
70467;SDS011;57934;51.532;7.684;2023-06-14T08:45:30;1.67;;;1.52;;
70467;SDS011;57934;51.532;7.684;2023-06-14T08:47:56;3.92;;;1.70;;
70467;SDS011;57934;51.532;7.684;2023-06-14T08:50:25;2.90;;;1.42;;
70467;SDS011;57934;51.532;7.684;2023-06-14T08:52:56;5.82;;;1.80;;
70467;SDS011;57934;51.532;7.684;2023-06-14T08:55:28;2.42;;;1.48;;
70467;SDS011;57934;51.532;7.684;2023-06-14T08:57:56;1.70;;;1.60;;
70467;SDS011;57934;51.532;7.684;2023-06-14T09:00:23;1.65;;;1.40;;
70467;SDS011;57934;51.532;7.684;2023-06-14T09:02:51;3.25;;;1.55;;
70467;SDS011;57934;51.532;7.684;2023-06-14T09:05:22;2.88;;;1.50;;
70467;SDS011;57934;51.532;7.684;2023-06-14T09:07:49;2.72;;;1.95;;
70467;SDS011;57934;51.532;7.684;2023-06-14T09:10:16;4.90;;;1.88;;
70467;SDS011;57934;51.532;7.684;2023-06-14T09:12:42;6.00;;;1.40;;
70467;SDS011;57934;51.532;7.684;2023-06-14T09:15:09;2.63;;;1.55;;
70467;SDS011;57934;51.532;7.684;2023-06-14T09:17:36;1.55;;;1.45;;
70467;SDS011;57934;51.532;7.684;2023-06-14T09:20:03;5.20;;;1.83;;
70467;SDS011;57934;51.532;7.684;2023-06-14T09:22:35;5.50;;;1.45;;
70467;SDS011;57934;51.532;7.684;2023-06-14T09:25:01;2.90;;;1.77;;
70467;SDS011;57934;51.532;7.684;2023-06-14T09:27:27;3.50;;;1.48;;
70467;SDS011;57934;51.532;7.684;2023-06-14T09:29:54;4.45;;;1.75;;
70467;SDS011;57934;51.532;7.684;2023-06-14T09:32:20;4.13;;;1.50;;
70467;SDS011;57934;51.532;7.684;2023-06-14T09:34:47;2.70;;;1.25;;
70467;SDS011;57934;51.532;7.684;2023-06-14T09:37:29;3.95;;;1.50;;
70467;SDS011;57934;51.532;7.684;2023-06-14T09:39:56;4.03;;;1.52;;
70467;SDS011;57934;51.532;7.684;2023-06-14T09:42:23;1.83;;;1.40;;
70467;SDS011;57934;51.532;7.684;2023-06-14T09:44:52;6.22;;;1.50;;
70467;SDS011;57934;51.532;7.684;2023-06-14T09:47:19;2.67;;;1.38;;
70467;SDS011;57934;51.532;7.684;2023-06-14T09:49:47;2.33;;;1.10;;
70467;SDS011;57934;51.532;7.684;2023-06-14T09:52:14;2.97;;;1.10;;
70467;SDS011;57934;51.532;7.684;2023-06-14T09:54:43;1.50;;;1.35;;
70467;SDS011;57934;51.532;7.684;2023-06-14T09:57:13;2.50;;;1.30;;
70467;SDS011;57934;51.532;7.684;2023-06-14T09:59:43;3.33;;;1.48;;
70467;SDS011;57934;51.532;7.684;2023-06-14T10:02:29;2.65;;;1.27;;
70467;SDS011;57934;51.532;7.684;2023-06-14T10:05:05;1.40;;;1.30;;
70467;SDS011;57934;51.532;7.684;2023-06-14T10:07:35;1.42;;;1.13;;
70467;SDS011;57934;51.532;7.684;2023-06-14T10:10:06;2.08;;;1.08;;
70467;SDS011;57934;51.532;7.684;2023-06-14T10:12:32;1.63;;;1.10;;
70467;SDS011;57934;51.532;7.684;2023-06-14T10:14:59;3.90;;;1.52;;
70467;SDS011;57934;51.532;7.684;2023-06-14T10:22:50;3.45;;;1.55;;
70467;SDS011;57934;51.532;7.684;2023-06-14T10:33:34;6.35;;;1.70;;
70467;SDS011;57934;51.532;7.684;2023-06-14T10:36:08;3.50;;;1.40;;
70467;SDS011;57934;51.532;7.684;2023-06-14T10:38:38;3.97;;;2.25;;
70467;SDS011;57934;51.532;7.684;2023-06-14T10:41:05;3.05;;;1.73;;
70467;SDS011;57934;51.532;7.684;2023-06-14T10:43:31;4.57;;;2.00;;
70467;SDS011;57934;51.532;7.684;2023-06-14T10:48:40;4.43;;;1.80;;
70467;SDS011;57934;51.532;7.684;2023-06-14T10:51:17;2.92;;;2.08;;
70467;SDS011;57934;51.532;7.684;2023-06-14T10:53:51;3.10;;;1.65;;
70467;SDS011;57934;51.532;7.684;2023-06-14T10:56:24;2.92;;;2.00;;
70467;SDS011;57934;51.532;7.684;2023-06-14T10:58:52;1.90;;;1.67;;
70467;SDS011;57934;51.532;7.684;2023-06-14T11:01:20;2.33;;;1.70;;
70467;SDS011;57934;51.532;7.684;2023-06-14T11:04:00;3.88;;;1.70;;
70467;SDS011;57934;51.532;7.684;2023-06-14T11:06:37;3.90;;;1.73;;
70467;SDS011;57934;51.532;7.684;2023-06-14T11:12:19;3.33;;;1.83;;
70467;SDS011;57934;51.532;7.684;2023-06-14T11:14:47;4.13;;;1.65;;
70467;SDS011;57934;51.532;7.684;2023-06-14T11:17:13;3.47;;;1.98;;
70467;SDS011;57934;51.532;7.684;2023-06-14T11:19:39;2.53;;;1.60;;
70467;SDS011;57934;51.532;7.684;2023-06-14T11:22:05;2.40;;;1.90;;
70467;SDS011;57934;51.532;7.684;2023-06-14T11:24:32;2.47;;;1.77;;
70467;SDS011;57934;51.532;7.684;2023-06-14T11:26:58;2.67;;;1.60;;
70467;SDS011;57934;51.532;7.684;2023-06-14T11:29:24;6.55;;;2.25;;
70467;SDS011;57934;51.532;7.684;2023-06-14T11:31:50;5.20;;;2.17;;
70467;SDS011;57934;51.532;7.684;2023-06-14T11:34:16;3.13;;;1.67;;
70467;SDS011;57934;51.532;7.684;2023-06-14T11:36:43;3.38;;;1.60;;
70467;SDS011;57934;51.532;7.684;2023-06-14T11:39:09;2.40;;;1.80;;
70467;SDS011;57934;51.532;7.684;2023-06-14T11:41:40;1.75;;;1.65;;
70467;SDS011;57934;51.532;7.684;2023-06-14T11:44:07;3.65;;;1.80;;
70467;SDS011;57934;51.532;7.684;2023-06-14T11:46:34;3.83;;;2.03;;
70467;SDS011;57934;51.532;7.684;2023-06-14T11:49:00;2.92;;;1.90;;
70467;SDS011;57934;51.532;7.684;2023-06-14T11:51:29;4.65;;;2.03;;
70467;SDS011;57934;51.532;7.684;2023-06-14T11:53:56;1.80;;;1.70;;
70467;SDS011;57934;51.532;7.684;2023-06-14T11:56:23;6.70;;;1.70;;
70467;SDS011;57934;51.532;7.684;2023-06-14T11:58:52;4.18;;;1.63;;
70467;SDS011;57934;51.532;7.684;2023-06-14T12:01:18;3.53;;;2.00;;
70467;SDS011;57934;51.532;7.684;2023-06-14T12:03:48;4.03;;;2.13;;
70467;SDS011;57934;51.532;7.684;2023-06-14T12:06:28;2.90;;;2.00;;
70467;SDS011;57934;51.532;7.684;2023-06-14T12:08:58;2.13;;;1.80;;
70467;SDS011;57934;51.532;7.684;2023-06-14T12:11:27;6.13;;;1.70;;
70467;SDS011;57934;51.532;7.684;2023-06-14T12:13:57;6.65;;;2.00;;
70467;SDS011;57934;51.532;7.684;2023-06-14T12:16:29;2.42;;;1.80;;
70467;SDS011;57934;51.532;7.684;2023-06-14T12:18:56;6.63;;;1.83;;
70467;SDS011;57934;51.532;7.684;2023-06-14T12:21:26;5.03;;;1.60;;
70467;SDS011;57934;51.532;7.684;2023-06-14T12:23:53;4.53;;;2.00;;
70467;SDS011;57934;51.532;7.684;2023-06-14T12:26:20;4.15;;;1.92;;
70467;SDS011;57934;51.532;7.684;2023-06-14T12:28:46;1.80;;;1.70;;
70467;SDS011;57934;51.532;7.684;2023-06-14T12:31:13;3.13;;;2.05;;
70467;SDS011;57934;51.532;7.684;2023-06-14T12:33:41;6.70;;;2.10;;
70467;SDS011;57934;51.532;7.684;2023-06-14T12:36:08;5.07;;;1.80;;
70467;SDS011;57934;51.532;7.684;2023-06-14T12:38:35;2.72;;;2.00;;
70467;SDS011;57934;51.532;7.684;2023-06-14T12:41:02;4.85;;;3.35;;
70467;SDS011;57934;51.532;7.684;2023-06-14T12:43:29;3.38;;;2.03;;
70467;SDS011;57934;51.532;7.684;2023-06-14T12:45:55;5.68;;;1.88;;
70467;SDS011;57934;51.532;7.684;2023-06-14T12:48:21;2.50;;;2.10;;
70467;SDS011;57934;51.532;7.684;2023-06-14T12:50:48;5.65;;;2.00;;
70467;SDS011;57934;51.532;7.684;2023-06-14T12:53:14;2.60;;;2.40;;
70467;SDS011;57934;51.532;7.684;2023-06-14T12:55:40;3.38;;;2.30;;
70467;SDS011;57934;51.532;7.684;2023-06-14T12:58:06;5.10;;;2.30;;
70467;SDS011;57934;51.532;7.684;2023-06-14T13:00:32;2.20;;;1.85;;
70467;SDS011;57934;51.532;7.684;2023-06-14T13:02:58;2.05;;;1.88;;
70467;SDS011;57934;51.532;7.684;2023-06-14T13:05:24;3.67;;;2.03;;
70467;SDS011;57934;51.532;7.684;2023-06-14T13:07:50;2.20;;;1.92;;
70467;SDS011;57934;51.532;7.684;2023-06-14T13:10:16;5.57;;;2.17;;
70467;SDS011;57934;51.532;7.684;2023-06-14T13:12:43;3.30;;;2.03;;
70467;SDS011;57934;51.532;7.684;2023-06-14T13:15:09;2.80;;;2.33;;
70467;SDS011;57934;51.532;7.684;2023-06-14T13:17:35;5.03;;;2.25;;
70467;SDS011;57934;51.532;7.684;2023-06-14T13:20:05;2.78;;;2.30;;
70467;SDS011;57934;51.532;7.684;2023-06-14T13:22:32;4.68;;;2.13;;
70467;SDS011;57934;51.532;7.684;2023-06-14T13:24:59;2.28;;;2.00;;
70467;SDS011;57934;51.532;7.684;2023-06-14T13:27:25;3.10;;;2.00;;
70467;SDS011;57934;51.532;7.684;2023-06-14T13:29:52;2.40;;;2.17;;
70467;SDS011;57934;51.532;7.684;2023-06-14T13:32:18;3.15;;;2.10;;
70467;SDS011;57934;51.532;7.684;2023-06-14T13:34:44;2.50;;;2.30;;
70467;SDS011;57934;51.532;7.684;2023-06-14T13:37:10;3.03;;;2.20;;
70467;SDS011;57934;51.532;7.684;2023-06-14T13:39:36;5.18;;;2.47;;
70467;SDS011;57934;51.532;7.684;2023-06-14T13:42:03;8.63;;;2.40;;
70467;SDS011;57934;51.532;7.684;2023-06-14T13:44:29;2.85;;;2.50;;
70467;SDS011;57934;51.532;7.684;2023-06-14T13:46:55;3.53;;;2.33;;
70467;SDS011;57934;51.532;7.684;2023-06-14T13:49:21;3.47;;;2.28;;
70467;SDS011;57934;51.532;7.684;2023-06-14T13:51:47;4.28;;;2.60;;
70467;SDS011;57934;51.532;7.684;2023-06-14T13:54:13;3.58;;;2.53;;
70467;SDS011;57934;51.532;7.684;2023-06-14T13:56:42;4.00;;;2.20;;
70467;SDS011;57934;51.532;7.684;2023-06-14T13:59:08;5.85;;;2.38;;
70467;SDS011;57934;51.532;7.684;2023-06-14T14:01:35;3.50;;;2.40;;
70467;SDS011;57934;51.532;7.684;2023-06-14T14:04:00;4.55;;;2.40;;
70467;SDS011;57934;51.532;7.684;2023-06-14T14:06:27;2.40;;;2.15;;
70467;SDS011;57934;51.532;7.684;2023-06-14T14:08:53;7.07;;;2.33;;
70467;SDS011;57934;51.532;7.684;2023-06-14T14:11:19;2.35;;;1.98;;
70467;SDS011;57934;51.532;7.684;2023-06-14T14:13:46;3.08;;;1.90;;
70467;SDS011;57934;51.532;7.684;2023-06-14T14:16:12;2.80;;;2.50;;
70467;SDS011;57934;51.532;7.684;2023-06-14T14:18:38;2.38;;;1.95;;
70467;SDS011;57934;51.532;7.684;2023-06-14T14:21:04;6.00;;;2.28;;
70467;SDS011;57934;51.532;7.684;2023-06-14T14:23:30;3.05;;;2.53;;
70467;SDS011;57934;51.532;7.684;2023-06-14T14:25:56;5.32;;;2.40;;
70467;SDS011;57934;51.532;7.684;2023-06-14T14:28:23;4.55;;;2.42;;
70467;SDS011;57934;51.532;7.684;2023-06-14T14:30:49;5.03;;;2.33;;
70467;SDS011;57934;51.532;7.684;2023-06-14T14:33:15;3.15;;;1.75;;
70467;SDS011;57934;51.532;7.684;2023-06-14T14:35:45;2.25;;;2.10;;
70467;SDS011;57934;51.532;7.684;2023-06-14T14:38:12;2.78;;;2.20;;
70467;SDS011;57934;51.532;7.684;2023-06-14T14:40:39;2.35;;;2.00;;
70467;SDS011;57934;51.532;7.684;2023-06-14T14:43:06;7.95;;;2.00;;
70467;SDS011;57934;51.532;7.684;2023-06-14T14:45:32;3.75;;;2.20;;
70467;SDS011;57934;51.532;7.684;2023-06-14T14:47:58;2.50;;;1.70;;
70467;SDS011;57934;51.532;7.684;2023-06-14T14:50:25;2.08;;;1.77;;
70467;SDS011;57934;51.532;7.684;2023-06-14T14:52:51;5.80;;;2.40;;
70467;SDS011;57934;51.532;7.684;2023-06-14T14:55:17;4.78;;;2.00;;
70467;SDS011;57934;51.532;7.684;2023-06-14T14:57:43;3.85;;;2.50;;
70467;SDS011;57934;51.532;7.684;2023-06-14T15:00:11;2.22;;;1.80;;
70467;SDS011;57934;51.532;7.684;2023-06-14T15:02:37;2.65;;;2.15;;
70467;SDS011;57934;51.532;7.684;2023-06-14T15:05:03;4.82;;;1.92;;
70467;SDS011;57934;51.532;7.684;2023-06-14T15:07:30;2.63;;;2.22;;
70467;SDS011;57934;51.532;7.684;2023-06-14T15:09:57;3.60;;;2.22;;